createdAt,value
2023-05-25T00:01:36.155Z,11.74
2023-05-25T00:04:38.819Z,11.71
2023-05-25T00:07:41.488Z,11.65
2023-05-25T00:10:45.454Z,11.62
2023-05-25T00:13:48.395Z,11.53
2023-05-25T00:16:51.554Z,11.55
2023-05-25T00:19:58.249Z,11.53
2023-05-25T00:23:02.231Z,11.60
2023-05-25T00:26:06.410Z,11.68
2023-05-25T00:29:09.015Z,11.75
2023-05-25T00:32:11.657Z,11.89
2023-05-25T00:35:14.353Z,12.02
2023-05-25T00:38:18.303Z,12.10
2023-05-25T00:41:22.495Z,12.23
2023-05-25T00:44:25.204Z,12.30
2023-05-25T00:47:28.753Z,12.34
2023-05-25T00:50:39.010Z,12.40
2023-05-25T00:53:41.611Z,12.39
2023-05-25T00:56:48.708Z,12.31
2023-05-25T00:59:52.869Z,12.20
2023-05-25T01:02:57.141Z,12.06
2023-05-25T01:06:00.816Z,12.03
2023-05-25T01:09:04.563Z,11.90
2023-05-25T01:12:09.142Z,11.84
2023-05-25T01:15:12.790Z,11.73
2023-05-25T01:18:15.569Z,11.64
2023-05-25T01:21:22.086Z,11.56
2023-05-25T01:24:31.967Z,11.61
2023-05-25T01:27:39.487Z,11.57
2023-05-25T01:30:43.393Z,11.49
2023-05-25T01:33:46.862Z,11.48
2023-05-25T01:36:51.419Z,11.42
2023-05-25T01:39:54.409Z,11.36
2023-05-25T01:42:57.202Z,11.25
2023-05-25T01:46:07.850Z,11.19
2023-05-25T01:49:16.914Z,11.12
2023-05-25T01:52:25.125Z,10.99
2023-05-25T01:55:30.074Z,10.93
2023-05-25T01:58:36.803Z,10.93
2023-05-25T02:01:40.337Z,10.90
2023-05-25T02:04:43.866Z,10.84
2023-05-25T02:07:47.743Z,10.82
2023-05-25T02:10:50.649Z,10.77
2023-05-25T02:13:53.247Z,10.71
2023-05-25T02:16:57.706Z,10.66
2023-05-25T02:20:00.562Z,10.61
2023-05-25T02:23:06.746Z,10.61
2023-05-25T02:26:09.424Z,10.54
2023-05-25T02:29:12.242Z,10.47
2023-05-25T02:32:14.928Z,10.45
2023-05-25T02:35:17.739Z,10.44
2023-05-25T02:38:21.707Z,10.42
2023-05-25T02:41:26.340Z,10.33
2023-05-25T02:44:29.021Z,10.37
2023-05-25T02:47:31.618Z,10.30
2023-05-25T02:50:34.415Z,10.28
2023-05-25T02:53:38.398Z,10.18
2023-05-25T02:56:42.383Z,10.25
2023-05-25T02:59:44.999Z,10.28
2023-05-25T03:02:48.950Z,10.35
2023-05-25T03:05:51.646Z,10.33
2023-05-25T03:08:55.712Z,10.25
2023-05-25T03:11:58.454Z,10.19
2023-05-25T03:15:01.102Z,10.16
2023-05-25T03:18:04.015Z,10.02
2023-05-25T03:21:06.993Z,10.09
2023-05-25T03:24:11.071Z,10.08
2023-05-25T03:27:13.720Z,10.06
2023-05-25T03:30:16.344Z,10.06
2023-05-25T03:33:18.939Z,10.05
2023-05-25T03:36:22.264Z,10.03
2023-05-25T03:39:26.712Z,10.01
2023-05-25T03:42:29.538Z,10.00
2023-05-25T03:45:32.244Z,10.00
2023-05-25T03:48:34.867Z,10.04
2023-05-25T03:51:37.720Z,10.08
2023-05-25T03:54:41.900Z,10.09
2023-05-25T03:57:44.685Z,10.21
2023-05-25T04:00:49.202Z,10.24
2023-05-25T04:03:52.950Z,10.21
2023-05-25T04:06:55.973Z,10.27
2023-05-25T04:10:00.226Z,10.36
2023-05-25T04:13:02.780Z,10.52
2023-05-25T04:16:05.942Z,10.63
2023-05-25T04:19:08.864Z,10.78
2023-05-25T04:22:11.519Z,10.87
2023-05-25T04:25:17.152Z,10.83
2023-05-25T04:28:19.800Z,10.81
2023-05-25T04:31:22.863Z,10.94
2023-05-25T04:34:26.259Z,11.03
2023-05-25T04:37:30.611Z,11.08
2023-05-25T04:40:35.462Z,11.23
2023-05-25T04:43:40.308Z,11.36
2023-05-25T04:46:46.519Z,11.50
2023-05-25T04:49:49.183Z,11.63
2023-05-25T04:52:51.781Z,11.77
2023-05-25T04:55:55.743Z,11.94
2023-05-25T04:58:58.749Z,12.07
2023-05-25T05:02:01.570Z,12.18
2023-05-25T05:05:04.344Z,12.34
2023-05-25T05:08:07.087Z,12.50
2023-05-25T05:11:11.556Z,12.65
2023-05-25T05:14:14.455Z,12.73
2023-05-25T05:17:17.612Z,12.90
2023-05-25T05:20:20.484Z,12.91
2023-05-25T05:23:23.940Z,13.06
2023-05-25T05:26:28.109Z,13.21
2023-05-25T05:29:30.819Z,13.30
2023-05-25T05:32:33.375Z,13.40
2023-05-25T05:35:36.010Z,13.54
2023-05-25T05:38:40.414Z,13.65
2023-05-25T05:41:45.600Z,13.77
2023-05-25T05:44:48.313Z,13.81
2023-05-25T05:47:51.054Z,13.99
2023-05-25T05:50:54.012Z,14.03
2023-05-25T05:53:56.758Z,14.16
2023-05-25T05:57:01.440Z,14.03
2023-05-25T06:00:06.839Z,14.08
2023-05-25T06:03:09.628Z,14.44
2023-05-25T06:06:12.866Z,14.87
2023-05-25T06:09:15.742Z,15.13
2023-05-25T06:12:19.759Z,14.93
2023-05-25T06:15:22.549Z,14.84
2023-05-25T06:18:25.534Z,14.61
2023-05-25T06:21:28.101Z,14.68
2023-05-25T06:24:31.408Z,14.87
2023-05-25T06:27:35.436Z,15.12
2023-05-25T06:30:38.367Z,15.14
2023-05-25T06:33:41.094Z,15.29
2023-05-25T06:36:43.732Z,15.40
2023-05-25T06:39:46.313Z,15.12
2023-05-25T06:42:50.377Z,14.93
2023-05-25T06:45:52.986Z,14.80
2023-05-25T06:48:55.563Z,14.95
2023-05-25T06:51:58.290Z,15.37
2023-05-25T06:55:01.101Z,15.85
2023-05-25T06:58:05.036Z,16.18
2023-05-25T07:01:07.931Z,16.27
2023-05-25T07:04:11.496Z,16.35
2023-05-25T07:07:14.431Z,16.57
2023-05-25T07:10:17.055Z,16.87
2023-05-25T07:13:21.124Z,17.05
2023-05-25T07:16:23.836Z,17.34
2023-05-25T07:19:26.517Z,17.70
2023-05-25T07:22:29.123Z,17.45
2023-05-25T07:25:31.903Z,17.27
2023-05-25T07:28:36.382Z,17.66
2023-05-25T07:31:39.011Z,17.72
2023-05-25T07:34:42.638Z,18.36
2023-05-25T07:37:45.611Z,18.94
2023-05-25T07:40:49.219Z,19.35
2023-05-25T07:43:53.450Z,19.63
2023-05-25T07:46:56.284Z,19.39
2023-05-25T07:49:59.041Z,19.77
2023-05-25T07:53:01.881Z,19.13
2023-05-25T07:56:06.250Z,19.90
2023-05-25T07:59:11.237Z,20.09
2023-05-25T08:02:14.076Z,20.52
2023-05-25T08:05:16.859Z,19.96
2023-05-25T08:08:20.212Z,19.82
2023-05-25T08:11:23.911Z,20.00
2023-05-25T08:14:28.455Z,19.69
2023-05-25T08:17:31.041Z,19.78
2023-05-25T08:20:33.989Z,20.02
2023-05-25T08:23:42.487Z,20.03
2023-05-25T08:29:57.034Z,19.53
2023-05-25T08:32:59.707Z,19.55
2023-05-25T08:36:02.359Z,19.62
2023-05-25T08:39:07.946Z,19.61
2023-05-25T08:42:10.750Z,19.92
2023-05-25T08:45:30.354Z,20.55
2023-05-25T08:48:42.463Z,21.07
2023-05-25T08:51:49.796Z,21.22
2023-05-25T08:54:54.429Z,21.55
2023-05-25T08:58:00.905Z,21.18
2023-05-25T09:01:07.461Z,21.12
2023-05-25T09:04:10.405Z,21.05
2023-05-25T09:07:13.357Z,20.24
2023-05-25T09:10:16.183Z,20.29
2023-05-25T09:13:22.440Z,20.93
2023-05-25T09:16:27.282Z,21.27
2023-05-25T09:19:30.221Z,21.78
2023-05-25T09:22:32.940Z,22.17
2023-05-25T09:25:36.452Z,22.86
2023-05-25T09:28:46.596Z,23.44
2023-05-25T09:31:50.806Z,23.77
2023-05-25T09:34:53.549Z,23.96
2023-05-25T09:37:56.334Z,23.98
2023-05-25T09:40:59.130Z,23.99
2023-05-25T09:44:10.946Z,24.02
2023-05-25T09:47:17.024Z,24.24
2023-05-25T09:50:19.852Z,24.44
2023-05-25T09:53:22.485Z,24.78
2023-05-25T09:56:25.127Z,24.94
2023-05-25T09:59:28.161Z,24.60
2023-05-25T10:02:32.141Z,24.02
2023-05-25T10:05:34.748Z,23.84
2023-05-25T10:08:37.421Z,24.46
2023-05-25T10:11:40.298Z,24.32
2023-05-25T10:14:44.146Z,24.17
2023-05-25T10:17:53.691Z,24.50
2023-05-25T10:21:03.277Z,24.97
2023-05-25T10:24:13.561Z,24.63
2023-05-25T10:27:27.099Z,24.39
2023-05-25T10:30:30.449Z,24.20
2023-05-25T10:33:35.008Z,25.04
2023-05-25T10:36:38.577Z,25.05
2023-05-25T10:39:42.941Z,25.57
2023-05-25T10:42:46.372Z,26.17
2023-05-25T10:45:49.554Z,26.93
2023-05-25T10:48:53.484Z,27.02
2023-05-25T10:51:59.731Z,26.56
2023-05-25T10:55:04.830Z,25.96
2023-05-25T10:58:11.601Z,26.61
2023-05-25T11:01:16.553Z,27.06
2023-05-25T11:04:20.837Z,26.72
2023-05-25T11:07:23.431Z,27.46
2023-05-25T11:10:54.531Z,27.68
2023-05-25T11:13:57.264Z,27.79
2023-05-25T11:17:08.268Z,26.49
2023-05-25T11:20:22.959Z,27.02
2023-05-25T11:23:26.105Z,27.44
2023-05-25T11:26:29.172Z,28.29
2023-05-25T11:29:33.249Z,28.20
2023-05-25T11:32:39.633Z,28.73
2023-05-25T11:35:45.844Z,28.78
2023-05-25T11:39:02.556Z,28.38
2023-05-25T11:42:11.249Z,28.44
2023-05-25T11:45:15.547Z,28.46
2023-05-25T11:48:18.478Z,28.87
2023-05-25T11:51:24.576Z,28.92
2023-05-25T11:54:28.382Z,28.83
2023-05-25T11:57:31.113Z,28.32
2023-05-25T12:00:34.084Z,28.89
2023-05-25T12:03:37.036Z,29.80
2023-05-25T12:06:41.223Z,30.26
2023-05-25T12:09:43.896Z,29.31
2023-05-25T12:12:48.155Z,29.27
2023-05-25T12:15:52.475Z,28.96
2023-05-25T12:18:55.602Z,28.27
2023-05-25T12:21:59.629Z,28.39
2023-05-25T12:25:03.571Z,28.77
2023-05-25T12:28:12.261Z,28.36
2023-05-25T12:31:22.051Z,28.66
2023-05-25T12:34:28.576Z,28.92
2023-05-25T12:37:32.885Z,29.08
2023-05-25T12:40:35.572Z,29.45
2023-05-25T12:43:39.809Z,29.46
2023-05-25T12:46:42.438Z,29.31
2023-05-25T12:49:46.536Z,30.36
2023-05-25T12:52:50.543Z,31.21
2023-05-25T12:56:02.105Z,31.26
2023-05-25T12:59:15.493Z,31.74
2023-05-25T13:02:18.372Z,32.24
2023-05-25T13:05:22.281Z,31.63
2023-05-25T13:08:26.218Z,31.21
2023-05-25T13:11:28.776Z,31.03
2023-05-25T13:14:31.508Z,31.18
2023-05-25T13:17:34.273Z,32.13
2023-05-25T13:20:37.094Z,33.39
2023-05-25T13:23:41.103Z,33.81
2023-05-25T13:26:46.459Z,33.70
2023-05-25T13:29:50.026Z,33.77
2023-05-25T13:32:52.807Z,32.79
2023-05-25T13:36:08.067Z,33.72
2023-05-25T13:39:13.685Z,34.48
2023-05-25T13:42:16.625Z,35.13
2023-05-25T13:45:19.668Z,38.64
2023-05-25T13:48:22.575Z,36.76
2023-05-25T13:51:25.293Z,38.79
2023-05-25T13:54:29.350Z,39.80
2023-05-25T13:57:32.004Z,38.32
2023-05-25T14:00:34.924Z,41.99
2023-05-25T14:03:38.549Z,43.43
2023-05-25T14:06:41.184Z,45.04
2023-05-25T14:09:45.632Z,40.80
2023-05-25T14:12:48.315Z,39.94
2023-05-25T14:15:51.108Z,38.95
2023-05-25T14:18:53.857Z,38.07
2023-05-25T14:22:11.623Z,36.89
2023-05-25T14:25:17.261Z,34.64
2023-05-25T14:28:19.899Z,34.06
2023-05-25T14:31:22.789Z,34.19
2023-05-25T14:34:25.550Z,36.33
2023-05-25T14:37:28.309Z,35.12
2023-05-25T14:40:32.636Z,35.46
2023-05-25T14:43:35.616Z,34.36
2023-05-25T14:46:38.529Z,34.34
2023-05-25T14:49:41.486Z,35.52
2023-05-25T14:52:44.322Z,42.79
2023-05-25T14:55:48.443Z,46.90
2023-05-25T14:58:51.133Z,50.11
2023-05-25T15:01:53.704Z,51.33
2023-05-25T15:04:56.338Z,44.01
2023-05-25T15:07:59.438Z,44.82
2023-05-25T15:11:03.302Z,46.07
2023-05-25T15:14:05.854Z,49.37
2023-05-25T15:17:08.453Z,47.72
2023-05-25T15:20:12.483Z,43.75
2023-05-25T15:23:15.301Z,38.84
2023-05-25T15:26:19.406Z,37.83
2023-05-25T15:29:22.221Z,44.18
2023-05-25T15:32:24.862Z,47.14
2023-05-25T15:35:31.353Z,46.09
2023-05-25T15:38:33.938Z,43.65
2023-05-25T15:41:38.003Z,40.58
2023-05-25T15:44:41.059Z,39.74
2023-05-25T15:47:43.924Z,41.61
2023-05-25T15:50:47.065Z,45.26
2023-05-25T15:53:49.695Z,46.36
2023-05-25T15:56:53.877Z,45.71
2023-05-25T15:59:56.495Z,47.14
2023-05-25T16:02:59.074Z,47.81
2023-05-25T16:06:02.254Z,47.41
2023-05-25T16:09:05.114Z,48.10
2023-05-25T16:12:09.572Z,48.79
2023-05-25T16:15:12.463Z,48.59
2023-05-25T16:18:16.644Z,49.61
2023-05-25T16:21:19.288Z,49.43
2023-05-25T16:24:21.946Z,46.12
2023-05-25T16:27:26.127Z,46.16
2023-05-25T16:30:28.742Z,47.06
2023-05-25T16:33:31.315Z,45.72
2023-05-25T16:36:33.967Z,43.79
2023-05-25T16:39:36.906Z,44.46
2023-05-25T16:42:40.901Z,45.68
2023-05-25T16:45:43.853Z,46.44
2023-05-25T16:48:46.557Z,46.82
2023-05-25T16:51:49.308Z,46.73
2023-05-25T16:54:51.855Z,44.72
2023-05-25T16:57:55.926Z,42.90
2023-05-25T17:00:58.588Z,43.16
2023-05-25T17:04:01.376Z,42.88
2023-05-25T17:07:04.187Z,42.99
2023-05-25T17:10:08.104Z,40.30
2023-05-25T17:13:12.140Z,34.98
2023-05-25T17:16:14.927Z,32.28
2023-05-25T17:19:17.539Z,30.88
2023-05-25T17:22:20.107Z,29.65
2023-05-25T17:25:22.939Z,29.05
2023-05-25T17:28:28.733Z,28.72
2023-05-25T17:31:31.409Z,28.49
2023-05-25T17:34:34.121Z,28.13
2023-05-25T17:37:36.650Z,27.34
2023-05-25T17:40:39.235Z,27.12
2023-05-25T17:43:43.280Z,26.81
2023-05-25T17:46:45.950Z,26.51
2023-05-25T17:49:48.636Z,26.40
2023-05-25T17:52:51.217Z,26.16
2023-05-25T17:55:54.032Z,25.88
2023-05-25T17:58:57.837Z,25.57
2023-05-25T18:02:00.552Z,25.47
2023-05-25T18:05:03.317Z,25.30
2023-05-25T18:08:06.093Z,25.16
2023-05-25T18:11:08.803Z,24.98
2023-05-25T18:14:12.823Z,24.96
2023-05-25T18:17:15.555Z,24.76
2023-05-25T18:20:18.332Z,24.62
2023-05-25T18:23:22.151Z,24.44
2023-05-25T18:26:24.818Z,24.34
2023-05-25T18:29:28.692Z,24.19
2023-05-25T18:32:31.293Z,24.07
2023-05-25T18:35:33.970Z,24.03
2023-05-25T18:38:36.672Z,23.90
2023-05-25T18:41:39.538Z,23.69
2023-05-25T18:44:43.325Z,23.50
2023-05-25T18:47:46.031Z,23.36
2023-05-25T18:50:48.956Z,23.24
2023-05-25T18:53:51.614Z,23.07
2023-05-25T18:56:54.176Z,22.92
2023-05-25T18:59:58.138Z,22.78
2023-05-25T19:03:00.849Z,22.62
2023-05-25T19:06:03.876Z,22.48
2023-05-25T19:09:06.520Z,22.32
2023-05-25T19:12:09.584Z,22.20
2023-05-25T19:15:14.217Z,22.10
2023-05-25T19:18:17.041Z,21.86
2023-05-25T19:21:19.632Z,21.69
2023-05-25T19:24:22.189Z,21.54
2023-05-25T19:27:25.268Z,21.48
2023-05-25T19:30:29.334Z,21.29
2023-05-25T19:33:31.892Z,21.08
2023-05-25T19:36:34.492Z,20.87
2023-05-25T19:39:37.058Z,20.69
2023-05-25T19:42:39.859Z,20.48
2023-05-25T19:45:44.775Z,20.32
2023-05-25T19:48:47.487Z,20.18
2023-05-25T19:51:50.137Z,20.00
2023-05-25T19:54:52.762Z,19.77
2023-05-25T19:57:55.332Z,19.64
2023-05-25T20:00:59.433Z,19.51
2023-05-25T20:04:02.092Z,19.43
2023-05-25T20:07:04.663Z,19.32
2023-05-25T20:10:07.994Z,19.18
2023-05-25T20:13:10.855Z,19.03
2023-05-25T20:16:15.023Z,18.95
2023-05-25T20:19:18.964Z,18.87
2023-05-25T20:22:21.967Z,18.82
2023-05-25T20:25:24.773Z,18.77
2023-05-25T20:28:27.378Z,18.72
2023-05-25T20:31:31.322Z,18.58
2023-05-25T20:34:33.994Z,18.53
2023-05-25T20:37:36.625Z,18.38
2023-05-25T20:40:39.252Z,18.35
2023-05-25T20:43:42.084Z,18.25
2023-05-25T20:46:45.947Z,18.17
2023-05-25T20:49:48.509Z,18.13
2023-05-25T20:52:51.067Z,18.06
2023-05-25T20:55:53.668Z,18.00
2023-05-25T20:58:57.504Z,17.90
2023-05-25T21:02:02.243Z,17.85
2023-05-25T21:05:05.270Z,17.79
2023-05-25T21:08:07.896Z,17.72
2023-05-25T21:11:10.712Z,17.65
2023-05-25T21:14:13.302Z,17.55
2023-05-25T21:17:19.537Z,17.48
2023-05-25T21:20:22.295Z,17.42
2023-05-25T21:23:25.259Z,17.42
2023-05-25T21:26:27.982Z,17.41
2023-05-25T21:29:30.666Z,17.39
2023-05-25T21:32:34.857Z,17.21
2023-05-25T21:35:37.603Z,17.16
2023-05-25T21:38:40.317Z,17.11
2023-05-25T21:41:42.813Z,17.10
2023-05-25T21:44:45.334Z,17.03
2023-05-25T21:47:49.407Z,16.94
2023-05-25T21:50:52.058Z,16.92
2023-05-25T21:53:54.728Z,16.90
2023-05-25T21:56:57.517Z,16.83
2023-05-25T22:00:00.090Z,16.79
2023-05-25T22:03:04.192Z,16.78
2023-05-25T22:06:07.140Z,16.73
2023-05-25T22:09:09.907Z,16.61
2023-05-25T22:12:13.101Z,16.62
2023-05-25T22:15:15.650Z,16.58
2023-05-25T22:18:19.645Z,16.59
2023-05-25T22:21:22.347Z,16.52
2023-05-25T22:24:24.927Z,16.46
2023-05-25T22:27:27.520Z,16.44
2023-05-25T22:30:30.153Z,16.44
2023-05-25T22:33:34.174Z,16.37
2023-05-25T22:36:37.164Z,16.33
2023-05-25T22:39:39.956Z,16.35
2023-05-25T22:42:45.006Z,16.38
2023-05-25T22:45:47.894Z,16.38
2023-05-25T22:48:51.967Z,16.39
2023-05-25T22:51:54.647Z,16.34
2023-05-25T22:54:57.292Z,16.30
2023-05-25T22:57:59.969Z,16.29
2023-05-25T23:01:02.679Z,16.24
2023-05-25T23:04:06.992Z,16.25
2023-05-25T23:07:09.813Z,16.20
2023-05-25T23:10:12.429Z,16.14
2023-05-25T23:13:15.429Z,16.14
2023-05-25T23:16:18.681Z,16.06
2023-05-25T23:19:23.471Z,16.01
2023-05-25T23:22:26.109Z,15.97
2023-05-25T23:25:28.686Z,16.00
2023-05-25T23:28:31.383Z,16.00
2023-05-25T23:31:34.151Z,16.01
2023-05-25T23:34:38.088Z,15.97
2023-05-25T23:37:40.677Z,15.98
2023-05-25T23:40:43.216Z,16.07
2023-05-25T23:43:46.506Z,16.13
2023-05-25T23:46:49.170Z,16.07
2023-05-25T23:49:53.091Z,15.97
2023-05-25T23:52:55.711Z,15.92
2023-05-25T23:55:58.356Z,15.91
2023-05-25T23:59:01.010Z,15.85
